createdAt,value
2023-01-13T00:01:00.478Z,2.78
2023-01-13T00:03:30.117Z,3.25
2023-01-13T00:05:59.846Z,4.78
2023-01-13T00:08:27.807Z,3.22
2023-01-13T00:10:55.261Z,3.60
2023-01-13T00:13:23.242Z,4.13
2023-01-13T00:15:56.376Z,3.30
2023-01-13T00:18:24.442Z,2.92
2023-01-13T00:21:00.021Z,3.00
2023-01-13T00:23:28.757Z,3.25
2023-01-13T00:25:56.735Z,3.75
2023-01-13T00:28:24.636Z,3.58
2023-01-13T00:30:52.404Z,3.25
2023-01-13T00:33:20.674Z,3.95
2023-01-13T00:35:56.070Z,3.30
2023-01-13T00:38:25.479Z,4.68
2023-01-13T00:40:56.864Z,2.80
2023-01-13T00:43:25.463Z,4.90
2023-01-13T00:45:53.261Z,3.22
2023-01-13T00:48:22.471Z,3.92
2023-01-13T00:50:55.786Z,3.40
2023-01-13T00:53:25.755Z,2.78
2023-01-13T00:56:00.030Z,3.88
2023-01-13T00:58:28.191Z,2.65
2023-01-13T01:00:59.524Z,3.70
2023-01-13T01:03:27.677Z,3.17
2023-01-13T01:05:55.295Z,3.97
2023-01-13T01:08:23.467Z,3.80
2023-01-13T01:11:01.069Z,4.15
2023-01-13T01:13:29.122Z,4.38
2023-01-13T01:15:56.907Z,3.55
2023-01-13T01:18:25.076Z,3.45
2023-01-13T01:20:52.584Z,4.22
2023-01-13T01:23:20.429Z,3.78
2023-01-13T01:25:48.116Z,4.47
2023-01-13T01:28:17.730Z,3.97
2023-01-13T01:30:45.318Z,3.80
2023-01-13T01:33:13.184Z,3.13
2023-01-13T01:35:40.863Z,5.50
2023-01-13T01:38:08.827Z,2.90
2023-01-13T01:40:36.247Z,3.80
2023-01-13T01:43:14.346Z,4.30
2023-01-13T01:45:43.307Z,3.88
2023-01-13T01:48:11.764Z,4.05
2023-01-13T01:50:40.269Z,3.40
2023-01-13T01:53:13.334Z,2.88
2023-01-13T01:55:41.517Z,5.70
2023-01-13T01:58:13.887Z,3.35
2023-01-13T02:00:41.577Z,3.33
2023-01-13T02:03:11.472Z,3.75
2023-01-13T02:05:38.978Z,3.15
2023-01-13T02:08:09.056Z,4.25
2023-01-13T02:10:37.517Z,4.25
2023-01-13T02:13:07.541Z,3.58
2023-01-13T02:15:42.459Z,4.00
2023-01-13T02:18:35.455Z,3.35
2023-01-13T02:21:24.739Z,4.05
2023-01-13T02:24:17.419Z,3.17
2023-01-13T02:27:23.119Z,6.78
2023-01-13T02:30:07.460Z,4.25
2023-01-13T02:32:44.860Z,3.33
2023-01-13T02:35:21.559Z,4.50
2023-01-13T02:37:50.793Z,4.18
2023-01-13T02:40:24.090Z,3.25
2023-01-13T02:42:57.859Z,4.05
2023-01-13T02:45:32.447Z,3.65
2023-01-13T02:48:02.119Z,2.97
2023-01-13T02:50:36.368Z,3.90
2023-01-13T02:53:08.619Z,3.42
2023-01-13T02:55:40.340Z,2.97
2023-01-13T02:58:10.513Z,3.00
2023-01-13T03:00:41.725Z,4.18
2023-01-13T03:03:09.288Z,5.47
2023-01-13T03:05:38.321Z,3.20
2023-01-13T03:08:17.082Z,3.42
2023-01-13T03:10:59.681Z,3.45
2023-01-13T03:13:42.734Z,4.45
2023-01-13T03:16:22.995Z,2.85
2023-01-13T03:18:58.431Z,3.30
2023-01-13T03:21:31.042Z,3.80
2023-01-13T03:24:05.009Z,3.05
2023-01-13T03:26:40.247Z,5.60
2023-01-13T03:29:15.070Z,3.53
2023-01-13T03:31:53.692Z,3.83
2023-01-13T03:34:25.443Z,3.85
2023-01-13T03:36:58.193Z,3.92
2023-01-13T03:39:32.438Z,4.65
2023-01-13T03:42:05.678Z,4.00
2023-01-13T03:44:36.073Z,3.67
2023-01-13T03:47:12.693Z,3.30
2023-01-13T03:49:46.079Z,4.70
2023-01-13T03:52:22.609Z,2.90
2023-01-13T03:54:55.034Z,4.03
2023-01-13T03:57:27.707Z,4.93
2023-01-13T03:59:59.657Z,3.78
2023-01-13T04:05:08.855Z,4.50
2023-01-13T04:07:46.568Z,3.53
2023-01-13T04:10:20.168Z,2.70
2023-01-13T04:12:53.611Z,3.47
2023-01-13T04:15:24.263Z,4.57
2023-01-13T04:17:54.612Z,3.70
2023-01-13T04:20:22.352Z,2.47
2023-01-13T04:22:50.260Z,2.80
2023-01-13T04:25:17.989Z,3.63
2023-01-13T04:27:45.895Z,4.50
2023-01-13T04:30:13.746Z,2.95
2023-01-13T04:32:41.665Z,5.40
2023-01-13T04:35:11.323Z,2.15
2023-01-13T04:37:39.372Z,2.80
2023-01-13T04:40:08.422Z,3.05
2023-01-13T04:42:36.250Z,2.88
2023-01-13T04:45:04.011Z,2.35
2023-01-13T04:47:31.988Z,3.30
2023-01-13T04:49:59.493Z,6.28
2023-01-13T04:52:28.833Z,3.10
2023-01-13T04:54:56.214Z,4.18
2023-01-13T04:57:24.257Z,3.17
2023-01-13T04:59:51.727Z,2.70
2023-01-13T05:02:19.651Z,3.53
2023-01-13T05:04:47.891Z,4.55
2023-01-13T05:07:16.751Z,4.28
2023-01-13T05:09:45.651Z,2.45
2023-01-13T05:12:13.743Z,1.88
2023-01-13T05:14:41.263Z,3.90
2023-01-13T05:17:10.942Z,3.58
2023-01-13T05:19:38.315Z,2.80
2023-01-13T05:22:06.415Z,1.75
2023-01-13T05:24:33.970Z,2.50
2023-01-13T05:27:03.404Z,4.35
2023-01-13T05:29:33.743Z,4.05
2023-01-13T05:32:05.252Z,2.15
2023-01-13T05:34:33.497Z,3.25
2023-01-13T05:37:01.280Z,3.42
2023-01-13T05:39:28.976Z,2.03
2023-01-13T05:41:57.152Z,3.47
2023-01-13T05:44:26.104Z,1.92
2023-01-13T05:46:53.975Z,2.83
2023-01-13T05:49:21.537Z,4.03
2023-01-13T05:51:49.656Z,5.18
2023-01-13T05:54:17.168Z,2.85
2023-01-13T05:56:44.991Z,2.85
2023-01-13T05:59:12.671Z,2.75
2023-01-13T06:01:42.069Z,1.75
2023-01-13T06:04:09.647Z,3.28
2023-01-13T06:06:37.644Z,2.25
2023-01-13T06:09:05.146Z,3.00
2023-01-13T06:11:33.223Z,2.53
2023-01-13T06:14:00.794Z,2.15
2023-01-13T06:16:28.806Z,1.63
2023-01-13T06:18:57.884Z,1.63
2023-01-13T06:21:25.922Z,2.63
2023-01-13T06:23:53.668Z,1.58
2023-01-13T06:26:25.107Z,1.10
2023-01-13T06:28:52.625Z,2.28
2023-01-13T06:31:20.617Z,2.42
2023-01-13T06:33:51.396Z,3.25
2023-01-13T06:36:24.664Z,2.38
2023-01-13T06:38:55.049Z,2.15
2023-01-13T06:41:23.872Z,2.35
2023-01-13T06:43:51.554Z,2.95
2023-01-13T06:46:19.523Z,3.00
2023-01-13T06:48:46.937Z,2.50
2023-01-13T06:51:15.069Z,1.40
2023-01-13T06:53:43.951Z,2.15
2023-01-13T06:56:11.797Z,2.08
2023-01-13T06:58:39.226Z,1.98
2023-01-13T07:01:07.273Z,2.58
2023-01-13T07:03:34.777Z,1.95
2023-01-13T07:06:02.652Z,1.67
2023-01-13T07:08:30.097Z,2.10
2023-01-13T07:11:01.819Z,1.13
2023-01-13T07:13:29.624Z,2.42
2023-01-13T07:15:59.134Z,2.28
2023-01-13T07:18:27.910Z,1.85
2023-01-13T07:20:58.031Z,3.10
2023-01-13T07:23:25.822Z,3.30
2023-01-13T07:25:55.482Z,2.25
2023-01-13T07:28:24.822Z,2.25
2023-01-13T07:30:53.100Z,2.05
2023-01-13T07:33:21.015Z,4.18
2023-01-13T07:35:57.439Z,1.75
2023-01-13T07:38:25.686Z,2.80
2023-01-13T07:40:53.605Z,2.35
2023-01-13T07:53:41.508Z,2.75
2023-01-13T07:56:09.045Z,3.20
2023-01-13T08:06:20.328Z,2.28
2023-01-13T08:08:48.223Z,2.03
2023-01-13T08:11:15.641Z,1.98
2023-01-13T08:13:43.620Z,2.60
2023-01-13T08:16:13.452Z,2.53
2023-01-13T08:18:41.811Z,2.55
2023-01-13T08:21:11.072Z,3.08
2023-01-13T08:23:40.715Z,2.95
2023-01-13T08:26:10.145Z,3.67
2023-01-13T08:28:38.815Z,2.92
2023-01-13T08:31:08.447Z,2.72
2023-01-13T08:33:36.386Z,3.08
2023-01-13T08:36:04.724Z,3.58
2023-01-13T08:38:33.237Z,2.88
2023-01-13T08:41:08.203Z,2.63
2023-01-13T08:43:35.939Z,2.85
2023-01-13T08:46:04.035Z,3.03
2023-01-13T08:48:32.015Z,2.95
2023-01-13T08:51:04.352Z,2.88
2023-01-13T08:53:32.719Z,6.72
2023-01-13T08:56:01.709Z,2.67
2023-01-13T08:58:29.553Z,2.25
2023-01-13T09:00:57.485Z,2.58
2023-01-13T09:03:25.457Z,1.88
2023-01-13T09:05:52.942Z,1.88
2023-01-13T09:08:20.979Z,2.38
2023-01-13T09:10:48.655Z,3.83
2023-01-13T09:13:18.186Z,3.13
2023-01-13T09:15:46.353Z,3.15
2023-01-13T09:18:14.954Z,4.07
2023-01-13T09:20:42.650Z,2.83
2023-01-13T09:23:11.453Z,3.45
2023-01-13T09:25:39.638Z,3.30
2023-01-13T09:28:07.752Z,3.13
2023-01-13T09:30:37.425Z,4.18
2023-01-13T09:33:05.526Z,2.45
2023-01-13T09:35:33.073Z,2.60
2023-01-13T09:38:01.085Z,3.92
2023-01-13T09:40:28.623Z,3.00
2023-01-13T09:43:02.909Z,3.17
2023-01-13T09:45:36.823Z,3.35
2023-01-13T09:48:13.581Z,3.03
2023-01-13T09:50:58.812Z,2.22
2023-01-13T09:53:30.598Z,2.22
2023-01-13T09:55:58.245Z,5.25
2023-01-13T09:58:27.261Z,3.97
2023-01-13T10:01:06.599Z,4.22
2023-01-13T10:03:36.354Z,2.90
2023-01-13T10:06:13.737Z,4.40
2023-01-13T10:08:43.679Z,2.65
2023-01-13T10:11:16.422Z,3.95
2023-01-13T10:13:44.830Z,5.82
2023-01-13T10:16:24.763Z,3.97
2023-01-13T10:19:04.893Z,4.72
2023-01-13T10:22:01.934Z,3.63
2023-01-13T10:27:04.617Z,2.90
2023-01-13T10:29:33.545Z,3.58
2023-01-13T10:32:01.164Z,4.57
2023-01-13T10:34:30.356Z,4.72
2023-01-13T10:37:00.187Z,6.15
2023-01-13T10:39:34.840Z,5.07
2023-01-13T10:42:06.641Z,7.20
2023-01-13T10:44:47.404Z,7.40
2023-01-13T10:47:21.501Z,4.53
2023-01-13T10:50:13.609Z,5.97
2023-01-13T10:52:54.898Z,3.90
2023-01-13T10:55:27.333Z,3.65
2023-01-13T10:57:55.002Z,4.35
2023-01-13T11:00:34.005Z,5.05
2023-01-13T11:03:17.483Z,4.32
2023-01-13T11:05:52.422Z,4.40
2023-01-13T11:08:22.670Z,5.45
2023-01-13T11:11:01.203Z,3.28
2023-01-13T11:13:34.341Z,5.85
2023-01-13T11:16:29.815Z,3.65
2023-01-13T11:19:02.681Z,3.20
2023-01-13T11:21:38.981Z,3.72
2023-01-13T11:24:15.579Z,3.63
2023-01-13T11:26:47.704Z,3.13
2023-01-13T11:29:22.449Z,7.68
2023-01-13T11:31:55.673Z,5.10
2023-01-13T11:34:30.554Z,4.85
2023-01-13T11:37:04.146Z,4.05
2023-01-13T11:39:44.282Z,5.28
2023-01-13T11:42:20.881Z,4.20
2023-01-13T11:44:56.614Z,4.78
2023-01-13T11:47:26.474Z,3.05
2023-01-13T11:49:54.408Z,5.50
2023-01-13T11:52:32.450Z,4.47
2023-01-13T11:55:22.447Z,4.57
2023-01-13T11:58:02.875Z,5.32
2023-01-13T12:00:39.520Z,4.22
2023-01-13T12:03:22.275Z,4.55
2023-01-13T12:06:01.690Z,3.55
2023-01-13T12:08:47.473Z,3.45
2023-01-13T12:11:22.921Z,3.28
2023-01-13T12:14:06.736Z,5.70
2023-01-13T12:16:34.936Z,3.28
2023-01-13T12:19:25.946Z,5.05
2023-01-13T12:22:10.154Z,5.13
2023-01-13T12:24:44.671Z,6.13
2023-01-13T12:27:19.130Z,4.22
2023-01-13T12:29:51.594Z,3.80
2023-01-13T12:32:23.657Z,4.30
2023-01-13T12:35:07.126Z,4.88
2023-01-13T12:37:39.824Z,4.05
2023-01-13T12:40:28.695Z,5.40
2023-01-13T12:43:03.108Z,3.30
2023-01-13T12:45:32.031Z,4.15
2023-01-13T12:48:00.402Z,5.85
2023-01-13T12:50:58.293Z,4.43
2023-01-13T12:53:36.977Z,3.13
2023-01-13T12:56:37.947Z,3.47
2023-01-13T12:59:44.599Z,6.10
2023-01-13T13:02:39.200Z,4.10
2023-01-13T13:05:46.036Z,2.97
2023-01-13T13:08:26.400Z,3.20
2023-01-13T13:11:14.564Z,3.60
2023-01-13T13:13:47.547Z,2.80
2023-01-13T13:16:57.060Z,2.55
2023-01-13T13:19:44.968Z,4.85
2023-01-13T13:22:37.347Z,6.38
2023-01-13T13:25:24.426Z,5.07
2023-01-13T13:28:06.331Z,3.33
2023-01-13T13:30:37.774Z,3.50
2023-01-13T13:33:31.626Z,3.60
2023-01-13T13:36:11.328Z,4.78
2023-01-13T13:38:54.214Z,3.58
2023-01-13T13:41:24.430Z,4.22
2023-01-13T13:43:52.010Z,3.28
2023-01-13T13:46:32.603Z,3.72
2023-01-13T13:49:00.347Z,5.72
2023-01-13T13:51:35.180Z,4.32
2023-01-13T13:54:03.823Z,4.45
2023-01-13T13:56:38.621Z,5.53
2023-01-13T13:59:10.587Z,5.00
2023-01-13T14:01:42.864Z,5.03
2023-01-13T14:04:17.345Z,4.70
2023-01-13T14:06:53.695Z,5.38
2023-01-13T14:09:22.596Z,6.40
2023-01-13T14:11:59.898Z,4.68
2023-01-13T14:14:27.982Z,5.75
2023-01-13T14:16:57.974Z,7.43
2023-01-13T14:19:32.106Z,5.30
2023-01-13T14:22:02.247Z,5.45
2023-01-13T14:24:31.296Z,4.30
2023-01-13T14:27:15.558Z,6.90
2023-01-13T14:29:43.423Z,6.05
2023-01-13T14:32:15.361Z,4.43
2023-01-13T14:34:43.241Z,2.60
2023-01-13T14:37:25.127Z,3.33
2023-01-13T14:39:52.870Z,6.18
2023-01-13T14:42:22.209Z,2.85
2023-01-13T14:44:51.168Z,2.95
2023-01-13T14:47:24.249Z,2.83
2023-01-13T14:49:59.124Z,4.38
2023-01-13T14:52:30.007Z,4.72
2023-01-13T14:55:21.374Z,5.05
2023-01-13T14:57:49.534Z,4.80
2023-01-13T15:00:24.061Z,6.53
2023-01-13T15:03:07.175Z,8.07
2023-01-13T15:05:45.046Z,5.75
2023-01-13T15:08:36.949Z,6.65
2023-01-13T15:11:07.304Z,5.47
2023-01-13T15:13:50.256Z,6.55
2023-01-13T15:16:23.824Z,5.68
2023-01-13T15:18:54.042Z,6.20
2023-01-13T15:21:21.720Z,7.10
2023-01-13T15:23:49.816Z,6.68
2023-01-13T15:26:23.520Z,6.18
2023-01-13T15:28:52.150Z,6.28
2023-01-13T15:31:20.065Z,7.15
2023-01-13T15:33:48.549Z,7.45
2023-01-13T15:36:29.150Z,8.85
2023-01-13T15:38:58.459Z,7.53
2023-01-13T15:41:26.484Z,11.23
2023-01-13T15:43:54.656Z,8.70
2023-01-13T15:46:22.719Z,5.85
2023-01-13T15:48:53.171Z,7.35
2023-01-13T15:51:22.661Z,9.90
2023-01-13T15:53:52.148Z,11.20
2023-01-13T15:56:25.512Z,10.43
2023-01-13T15:58:53.557Z,10.30
2023-01-13T16:01:21.654Z,12.48
2023-01-13T16:03:49.601Z,11.32
2023-01-13T16:06:19.347Z,9.35
2023-01-13T16:08:47.242Z,9.00
2023-01-13T16:11:16.269Z,11.93
2023-01-13T16:13:44.229Z,8.60
2023-01-13T16:16:20.769Z,9.95
2023-01-13T16:18:49.304Z,10.75
2023-01-13T16:21:17.221Z,7.72
2023-01-13T16:23:45.540Z,11.25
2023-01-13T16:26:19.040Z,11.98
2023-01-13T16:28:47.245Z,11.02
2023-01-13T16:31:22.676Z,15.18
2023-01-13T16:33:50.992Z,21.63
2023-01-13T16:36:22.639Z,19.25
2023-01-13T16:38:51.758Z,14.85
2023-01-13T16:41:22.181Z,11.80
2023-01-13T16:43:50.602Z,12.32
2023-01-13T16:46:24.661Z,13.27
2023-01-13T16:48:53.716Z,13.15
2023-01-13T16:51:21.988Z,10.95
2023-01-13T16:53:50.174Z,13.00
2023-01-13T16:56:24.663Z,7.68
2023-01-13T16:58:54.115Z,8.63
2023-01-13T17:01:24.525Z,9.48
2023-01-13T17:03:53.256Z,9.27
2023-01-13T17:06:24.532Z,9.38
2023-01-13T17:08:53.393Z,8.80
2023-01-13T17:11:22.669Z,6.88
2023-01-13T17:13:50.690Z,8.55
2023-01-13T17:16:20.420Z,13.10
2023-01-13T17:18:49.065Z,9.15
2023-01-13T17:21:17.112Z,9.50
2023-01-13T17:23:45.393Z,10.45
2023-01-13T17:26:28.124Z,11.52
2023-01-13T17:28:56.114Z,11.30
2023-01-13T17:31:23.888Z,17.05
2023-01-13T17:33:52.024Z,18.05
2023-01-13T17:36:19.648Z,14.35
2023-01-13T17:38:47.610Z,17.80
2023-01-13T17:41:15.042Z,16.02
2023-01-13T17:43:44.433Z,14.77
2023-01-13T17:46:12.828Z,14.88
2023-01-13T17:48:40.638Z,13.20
2023-01-13T17:51:11.832Z,18.48
2023-01-13T17:53:39.875Z,15.73
2023-01-13T17:56:09.208Z,23.27
2023-01-13T17:58:37.507Z,19.20
2023-01-13T18:01:10.757Z,16.73
2023-01-13T18:03:39.272Z,20.48
2023-01-13T18:06:09.180Z,15.40
2023-01-13T18:08:37.465Z,16.23
2023-01-13T18:11:06.424Z,18.10
2023-01-13T18:13:34.942Z,19.92
2023-01-13T18:16:03.719Z,21.50
2023-01-13T18:18:33.214Z,18.58
2023-01-13T18:21:00.773Z,18.35
2023-01-13T18:23:28.896Z,20.45
2023-01-13T18:25:56.388Z,21.73
2023-01-13T18:28:24.364Z,20.58
2023-01-13T18:30:51.811Z,19.33
2023-01-13T18:33:20.083Z,16.65
2023-01-13T18:35:49.066Z,17.48
2023-01-13T18:38:17.540Z,16.38
2023-01-13T18:40:45.066Z,14.38
2023-01-13T18:43:12.875Z,17.95
2023-01-13T18:45:40.345Z,17.33
2023-01-13T18:48:08.597Z,17.13
2023-01-13T18:50:36.064Z,17.67
2023-01-13T18:53:05.369Z,16.50
2023-01-13T18:55:32.722Z,17.30
2023-01-13T18:58:01.153Z,17.77
2023-01-13T19:00:28.587Z,19.02
2023-01-13T19:05:34.392Z,21.38
2023-01-13T19:08:02.509Z,20.13
2023-01-13T19:10:33.981Z,18.27
2023-01-13T19:13:01.953Z,18.88
2023-01-13T19:15:29.713Z,17.70
2023-01-13T19:17:58.022Z,18.67
2023-01-13T19:20:25.624Z,17.98
2023-01-13T19:22:54.005Z,16.80
2023-01-13T19:25:21.651Z,14.88
2023-01-13T19:27:50.980Z,22.55
2023-01-13T19:30:19.301Z,18.67
2023-01-13T19:32:47.200Z,19.73
2023-01-13T19:35:14.690Z,18.88
2023-01-13T19:37:42.505Z,18.98
2023-01-13T19:40:11.342Z,15.32
2023-01-13T19:45:12.485Z,18.80
2023-01-13T19:47:41.105Z,16.23
2023-01-13T19:50:10.118Z,17.48
2023-01-13T19:52:37.995Z,14.52
2023-01-13T19:55:06.416Z,10.63
2023-01-13T19:57:34.350Z,19.33
2023-01-13T20:00:01.705Z,14.35
2023-01-13T20:02:31.508Z,13.45
2023-01-13T20:05:01.526Z,15.48
2023-01-13T20:07:31.034Z,14.32
2023-01-13T20:09:58.579Z,17.45
2023-01-13T20:12:26.601Z,13.30
2023-01-13T20:14:54.169Z,13.95
2023-01-13T20:17:22.460Z,14.63
2023-01-13T20:19:51.354Z,14.27
2023-01-13T20:22:19.148Z,13.90
2023-01-13T20:24:46.556Z,17.38
2023-01-13T20:27:14.370Z,14.32
2023-01-13T20:29:42.019Z,14.50
2023-01-13T20:32:10.611Z,13.07
2023-01-13T20:34:38.155Z,13.13
2023-01-13T20:37:07.512Z,16.02
2023-01-13T20:39:35.002Z,15.93
2023-01-13T20:42:02.868Z,11.63
2023-01-13T20:44:30.997Z,8.93
2023-01-13T20:46:58.973Z,8.75
2023-01-13T20:49:27.802Z,10.82
2023-01-13T20:51:56.244Z,8.45
2023-01-13T20:54:25.545Z,7.82
2023-01-13T20:56:54.158Z,9.88
2023-01-13T20:59:21.715Z,8.32
2023-01-13T21:01:49.893Z,7.35
2023-01-13T21:04:17.370Z,8.02
2023-01-13T21:06:45.497Z,9.95
2023-01-13T21:09:13.015Z,8.20
2023-01-13T21:11:43.243Z,9.05
2023-01-13T21:14:14.120Z,11.52
2023-01-13T21:16:42.039Z,7.95
2023-01-13T21:19:09.592Z,10.85
2023-01-13T21:21:37.593Z,9.27
2023-01-13T21:24:05.775Z,8.30
2023-01-13T21:26:33.818Z,7.90
2023-01-13T21:29:02.872Z,7.90
2023-01-13T21:31:30.870Z,10.82
2023-01-13T21:33:58.963Z,7.82
2023-01-13T21:36:27.929Z,8.48
2023-01-13T21:38:56.912Z,8.13
2023-01-13T21:41:26.340Z,6.93
2023-01-13T21:43:54.154Z,13.48
2023-01-13T21:46:23.971Z,8.48
2023-01-13T21:48:51.508Z,6.40
2023-01-13T21:51:19.427Z,6.90
2023-01-13T21:53:47.204Z,7.70
2023-01-13T21:56:15.432Z,6.55
2023-01-13T21:58:43.020Z,6.38
2023-01-13T22:01:11.957Z,4.75
2023-01-13T22:03:41.395Z,7.07
2023-01-13T22:06:09.437Z,6.28
2023-01-13T22:08:37.051Z,8.50
2023-01-13T22:11:05.287Z,6.80
2023-01-13T22:13:32.823Z,6.88
2023-01-13T22:16:02.909Z,8.73
2023-01-13T22:18:30.330Z,6.45
2023-01-13T22:21:02.168Z,7.30
2023-01-13T22:23:29.767Z,6.38
2023-01-13T22:26:01.334Z,8.00
2023-01-13T22:28:29.516Z,8.10
2023-01-13T22:30:57.521Z,6.43
2023-01-13T22:33:24.963Z,6.97
2023-01-13T22:35:55.076Z,6.43
2023-01-13T22:38:24.248Z,5.78
2023-01-13T22:40:58.550Z,7.45
2023-01-13T22:43:27.123Z,7.97
2023-01-13T22:45:58.683Z,6.43
2023-01-13T22:48:26.266Z,6.55
2023-01-13T22:50:55.097Z,5.22
2023-01-13T22:53:23.930Z,4.38
2023-01-13T22:55:55.347Z,6.22
2023-01-13T22:58:23.583Z,8.07
2023-01-13T23:00:51.686Z,5.10
2023-01-13T23:03:19.529Z,5.57
2023-01-13T23:05:47.516Z,5.88
2023-01-13T23:08:15.060Z,6.60
2023-01-13T23:10:44.211Z,7.68
2023-01-13T23:13:11.717Z,5.63
2023-01-13T23:15:39.505Z,6.28
2023-01-13T23:18:06.960Z,4.90
2023-01-13T23:20:34.870Z,5.40
2023-01-13T23:23:02.347Z,5.25
2023-01-13T23:25:30.513Z,5.03
2023-01-13T23:27:59.464Z,6.43
2023-01-13T23:30:27.614Z,8.50
2023-01-13T23:32:55.101Z,6.65
2023-01-13T23:35:23.192Z,6.35
2023-01-13T23:37:50.684Z,6.57
2023-01-13T23:40:18.649Z,5.78
2023-01-13T23:42:46.273Z,7.22
2023-01-13T23:45:15.960Z,7.93
2023-01-13T23:47:43.691Z,6.03
2023-01-13T23:50:11.829Z,5.82
2023-01-13T23:52:39.362Z,5.35
2023-01-13T23:55:07.771Z,5.05
2023-01-13T23:57:35.480Z,7.25
